Time;durP1;ratioP1;P1;durP2;ratioP2;P2;SDS_P1;SDS_P2;PMS_P1;PMS_P2;Temp;Humidity;BMP_temperature;BMP_pressure;BME280_temperature;BME280_humidity;BME280_pressure;Samples;Min_cycle;Max_cycle;Signal;HPM_P1;HPM_P2
2022/08/28 00:00:28;;;;;;;12.73;3.90;;;;;;;18.45;60.95;101939.22;5076460;28;20036;-51
2022/08/28 00:02:55;;;;;;;10.88;3.75;;;;;;;18.35;60.87;101938.22;5076006;28;20020;-52
2022/08/28 00:05:24;;;;;;;8.57;3.45;;;;;;;18.35;60.89;101940.81;5071175;28;20041;-50
2022/08/28 00:07:49;;;;;;;11.90;3.83;;;;;;;18.42;60.88;101946.97;5077195;28;20032;-51
2022/08/28 00:10:17;;;;;;;10.30;3.88;;;;;;;18.33;60.97;101941.66;5072111;28;20051;-51
2022/08/28 00:12:44;;;;;;;9.95;3.53;;;;;;;18.32;61.32;101947.69;5077300;28;20040;-50
2022/08/28 00:15:14;;;;;;;8.70;3.25;;;;;;;18.34;61.33;101944.28;5077295;28;20028;-46
2022/08/28 00:17:40;;;;;;;12.48;3.72;;;;;;;18.30;61.65;101945.06;5078363;28;20036;-51
2022/08/28 00:20:08;;;;;;;9.77;4.10;;;;;;;18.31;61.63;101940.75;5073188;28;20035;-48
2022/08/28 00:22:37;;;;;;;8.85;3.63;;;;;;;18.32;61.46;101942.50;5055974;28;20154;-47
2022/08/28 00:25:04;;;;;;;14.35;4.32;;;;;;;18.30;61.45;101941.59;5064581;28;20032;-49
2022/08/28 00:30:13;;;;;;;10.70;4.13;;;;;;;18.21;61.84;101939.75;5052737;28;20460;-47
2022/08/28 00:32:39;;;;;;;11.40;4.15;;;;;;;18.14;62.11;101944.00;5060694;28;20032;-48
2022/08/28 00:35:05;;;;;;;12.13;3.88;;;;;;;18.14;62.21;101938.81;5054992;28;20049;-51
2022/08/28 00:37:30;;;;;;;11.20;3.75;;;;;;;18.06;62.55;101943.00;5063261;28;20035;-50
2022/08/28 00:39:56;;;;;;;8.75;4.03;;;;;;;18.03;62.59;101940.38;5053332;28;20374;-47
2022/08/28 00:42:21;;;;;;;9.68;3.92;;;;;;;17.97;62.65;101942.00;5056663;28;20032;-49
2022/08/28 00:44:47;;;;;;;11.30;4.07;;;;;;;17.96;63.02;101941.16;5051555;28;20114;-49
2022/08/28 00:47:12;;;;;;;9.80;3.70;;;;;;;17.98;62.70;101943.75;5054874;28;20036;-49
2022/08/28 00:49:46;;;;;;;9.90;3.75;;;;;;;18.00;62.86;101948.13;5053710;28;20127;-51
2022/08/28 00:52:14;;;;;;;12.90;3.97;;;;;;;18.01;63.33;101942.06;5054570;28;20032;-47
2022/08/28 00:55:08;;;;;;;11.25;4.03;;;;;;;18.00;63.14;101952.44;5055724;28;20112;-48
2022/08/28 00:57:41;;;;;;;12.05;4.40;;;;;;;17.98;63.29;101947.25;5058050;28;20056;-51
2022/08/28 01:00:13;;;;;;;12.57;4.07;;;;;;;17.97;63.70;101950.69;5055734;28;20034;-46
2022/08/28 01:02:40;;;;;;;9.55;3.60;;;;;;;17.93;63.85;101949.75;5055522;28;20036;-52
2022/08/28 01:05:08;;;;;;;11.15;3.63;;;;;;;17.95;63.62;101954.97;5055990;28;20132;-50
2022/08/28 01:07:35;;;;;;;12.02;4.10;;;;;;;17.85;64.22;101953.97;5053876;28;20048;-49
2022/08/28 01:10:02;;;;;;;10.23;4.50;;;;;;;17.95;63.84;101953.25;5053936;28;20024;-50
2022/08/28 01:12:31;;;;;;;9.32;4.50;;;;;;;17.96;63.85;101967.16;5054073;28;20534;-49
2022/08/28 01:14:58;;;;;;;13.75;3.85;;;;;;;17.91;64.23;101964.50;5053078;28;21114;-51
2022/08/28 01:17:27;;;;;;;9.68;4.15;;;;;;;17.91;63.98;101964.50;5058801;28;20036;-50
2022/08/28 01:19:57;;;;;;;11.50;4.03;;;;;;;17.95;64.20;101966.25;5057050;28;20035;-48
2022/08/28 01:22:37;;;;;;;12.07;4.80;;;;;;;17.90;63.99;101961.88;5054302;28;20028;-50
2022/08/28 01:25:15;;;;;;;9.88;3.60;;;;;;;17.99;63.73;101958.50;5051721;28;20037;-48
2022/08/28 01:27:41;;;;;;;11.27;3.75;;;;;;;17.91;63.97;101958.41;5054073;28;20024;-51
2022/08/28 01:30:13;;;;;;;11.15;3.78;;;;;;;17.93;64.48;101960.16;5051122;28;20539;-50
2022/08/28 01:32:42;;;;;;;13.10;4.00;;;;;;;17.92;64.42;101961.03;5054070;28;20056;-47
2022/08/28 01:35:12;;;;;;;9.38;3.70;;;;;;;17.88;64.45;101969.63;5058658;28;20067;-48
2022/08/28 01:37:39;;;;;;;11.93;3.72;;;;;;;17.88;64.55;101960.94;5053112;28;20761;-48
2022/08/28 01:40:08;;;;;;;10.73;3.70;;;;;;;17.80;64.52;101965.16;5056188;28;20032;-50
2022/08/28 01:42:38;;;;;;;8.90;3.47;;;;;;;17.86;64.37;101963.53;5053170;28;20040;-52
2022/08/28 01:45:05;;;;;;;10.50;3.50;;;;;;;17.81;64.72;101972.13;5053395;28;20028;-47
2022/08/28 01:47:30;;;;;;;11.32;3.90;;;;;;;17.75;65.30;101966.81;5059119;28;20051;-48
2022/08/28 01:49:56;;;;;;;10.05;3.67;;;;;;;17.80;64.63;101972.97;5061562;28;20574;-51
2022/08/28 01:52:21;;;;;;;8.57;3.67;;;;;;;17.69;65.11;101968.44;5055698;28;20066;-48
2022/08/28 01:54:46;;;;;;;10.88;3.58;;;;;;;17.74;64.98;101976.34;5051910;28;20035;-48
2022/08/28 01:57:12;;;;;;;8.00;3.65;;;;;;;17.72;64.61;101978.06;5059235;28;20090;-47
2022/08/28 01:59:37;;;;;;;9.18;3.42;;;;;;;17.72;64.88;101979.78;5057912;28;20039;-46
2022/08/28 02:02:03;;;;;;;11.73;3.50;;;;;;;17.70;64.93;101975.38;5053168;28;21514;-52
2022/08/28 02:04:28;;;;;;;10.38;3.50;;;;;;;17.64;64.94;101974.41;5061396;28;20028;-51
2022/08/28 02:06:54;;;;;;;10.35;3.72;;;;;;;17.58;65.19;101964.78;5054615;28;20032;-49
2022/08/28 02:09:20;;;;;;;14.02;3.80;;;;;;;17.60;65.09;101976.09;5052808;28;20696;-51
2022/08/28 02:11:45;;;;;;;11.45;3.80;;;;;;;17.57;65.06;101968.22;5053306;28;20563;-47
2022/08/28 02:14:10;;;;;;;14.10;3.72;;;;;;;17.56;65.15;101978.59;5053785;28;20044;-46
2022/08/28 02:16:36;;;;;;;9.68;3.63;;;;;;;17.51;65.21;101982.84;5058707;28;20028;-51
2022/08/28 02:19:02;;;;;;;11.82;4.10;;;;;;;17.52;65.21;101985.47;5053223;28;20075;-51
2022/08/28 02:21:27;;;;;;;9.57;3.72;;;;;;;17.48;65.45;101988.00;5052087;28;20039;-46
2022/08/28 02:23:53;;;;;;;9.52;3.50;;;;;;;17.45;65.44;101988.81;5052585;28;20036;-49
2022/08/28 02:26:18;;;;;;;15.38;4.00;;;;;;;17.45;65.69;101991.41;5054424;28;20036;-51
2022/08/28 02:28:44;;;;;;;8.52;3.60;;;;;;;17.39;65.72;101986.09;5069428;28;20031;-50
2022/08/28 02:31:10;;;;;;;13.35;3.88;;;;;;;17.39;66.01;101993.91;5076055;28;20052;-51
2022/08/28 02:33:37;;;;;;;8.52;3.63;;;;;;;17.35;66.18;101987.78;5077225;28;20424;-51
2022/08/28 02:36:05;;;;;;;11.77;4.00;;;;;;;17.18;66.45;101997.00;5071383;28;20028;-51
2022/08/28 02:38:31;;;;;;;11.00;4.20;;;;;;;17.25;66.27;101991.06;5073916;28;20028;-50
2022/08/28 02:40:56;;;;;;;10.88;3.60;;;;;;;17.24;66.22;101991.03;5078483;28;20024;-52
2022/08/28 02:43:22;;;;;;;10.15;3.63;;;;;;;17.29;66.04;101991.97;5072001;28;20032;-52
2022/08/28 02:45:48;;;;;;;11.38;3.88;;;;;;;17.24;65.72;101991.03;5070803;28;20378;-51
2022/08/28 02:48:13;;;;;;;9.70;3.72;;;;;;;17.18;66.70;101988.34;5080733;28;20062;-52
2022/08/28 02:50:38;;;;;;;11.85;3.42;;;;;;;17.20;66.51;101994.44;5080117;28;20068;-51
2022/08/28 02:53:04;;;;;;;10.25;3.60;;;;;;;17.17;66.45;101995.25;5078243;28;20059;-52
2022/08/28 02:55:30;;;;;;;10.90;4.10;;;;;;;17.18;66.74;101990.94;5070498;28;20036;-52
2022/08/28 02:57:56;;;;;;;10.55;3.60;;;;;;;17.10;67.04;101986.44;5072042;28;20035;-52
2022/08/28 03:00:24;;;;;;;12.15;3.58;;;;;;;17.18;66.90;101990.94;5074467;28;20388;-50
2022/08/28 03:02:50;;;;;;;10.82;3.78;;;;;;;17.15;66.55;101984.81;5080716;28;20547;-51
2022/08/28 03:05:19;;;;;;;10.23;3.95;;;;;;;17.12;66.70;101989.97;5071175;28;20181;-50
2022/08/28 03:07:45;;;;;;;10.75;3.60;;;;;;;17.11;66.76;101989.94;5072400;28;20028;-51
2022/08/28 03:10:11;;;;;;;11.43;3.63;;;;;;;17.11;66.62;101988.22;5073933;28;20032;-49
2022/08/28 03:12:37;;;;;;;12.05;3.25;;;;;;;17.05;66.84;101982.91;5076192;28;20060;-46
2022/08/28 03:15:04;;;;;;;10.13;3.83;;;;;;;17.01;67.05;101985.41;5077076;28;20039;-47
2022/08/28 03:17:30;;;;;;;9.30;3.70;;;;;;;16.99;67.06;101981.91;5081850;28;20039;-51
2022/08/28 03:19:56;;;;;;;8.15;3.20;;;;;;;16.89;67.41;101992.09;5075264;28;20031;-52
2022/08/28 03:23:24;;;;;;;8.07;3.38;;;;;;;16.93;67.13;101987.88;5073760;28;20108;-51
2022/08/28 03:25:07;;;;;;;10.82;3.85;;;;;;;16.89;67.31;101992.09;5074925;28;20106;-50
2022/08/28 03:27:33;;;;;;;11.05;3.65;;;;;;;16.91;67.41;101993.84;5075990;28;20124;-50
2022/08/28 03:29:58;;;;;;;10.65;3.55;;;;;;;16.91;67.28;101989.53;5075487;28;20032;-46
2022/08/28 03:32:25;;;;;;;11.40;3.42;;;;;;;16.85;67.78;101999.81;5075090;28;21801;-52
2022/08/28 03:34:52;;;;;;;9.02;3.22;;;;;;;16.85;67.72;101999.81;5073549;28;20048;-51
2022/08/28 03:37:18;;;;;;;12.10;3.78;;;;;;;16.84;67.46;102005.84;5074510;28;20055;-51
2022/08/28 03:39:43;;;;;;;13.63;3.72;;;;;;;16.83;67.46;102004.97;5076749;28;20028;-50
2022/08/28 03:42:09;;;;;;;12.32;4.07;;;;;;;16.81;67.78;102004.06;5074109;28;20094;-49
2022/08/28 03:44:36;;;;;;;9.35;3.22;;;;;;;16.81;67.52;102014.47;5071285;28;20036;-51
2022/08/28 03:47:03;;;;;;;11.85;3.67;;;;;;;16.75;68.04;102009.16;5074725;28;20039;-50
2022/08/28 03:49:28;;;;;;;10.48;3.63;;;;;;;16.76;67.92;102016.09;5074455;28;20480;-52
2022/08/28 03:51:53;;;;;;;10.23;3.50;;;;;;;16.79;67.77;102010.94;5076657;28;20115;-46
2022/08/28 03:54:19;;;;;;;12.25;3.70;;;;;;;16.70;68.25;102013.34;5078996;28;20119;-51
2022/08/28 03:56:44;;;;;;;11.07;3.85;;;;;;;16.71;67.92;102017.69;5076590;28;20109;-50
2022/08/28 03:59:09;;;;;;;12.13;4.30;;;;;;;16.68;68.25;102012.41;5070173;28;20036;-51
2022/08/28 04:01:36;;;;;;;12.15;3.45;;;;;;;16.70;68.33;102017.66;5074226;28;20036;-52
2022/08/28 04:04:03;;;;;;;9.27;3.83;;;;;;;16.66;68.65;102019.28;5075382;28;20067;-51
2022/08/28 04:06:29;;;;;;;11.13;3.65;;;;;;;16.62;68.49;102018.38;5079097;28;20086;-51
2022/08/28 04:08:54;;;;;;;9.77;3.42;;;;;;;16.62;68.42;102020.06;5074664;28;20028;-48
2022/08/28 04:11:20;;;;;;;9.85;3.60;;;;;;;16.61;68.54;102020.91;5070699;28;20064;-51
2022/08/28 04:13:46;;;;;;;9.25;3.75;;;;;;;16.61;68.51;102023.50;5074029;28;20033;-49
2022/08/28 04:16:15;;;;;;;10.38;3.63;;;;;;;16.62;68.44;102020.06;5074004;28;20024;-47
2022/08/28 04:18:42;;;;;;;11.30;4.00;;;;;;;16.63;68.52;102024.44;5070710;28;20485;-50
2022/08/28 04:21:14;;;;;;;11.23;3.63;;;;;;;16.58;68.66;102016.53;5068326;28;20048;-51
2022/08/28 04:23:44;;;;;;;12.25;4.00;;;;;;;16.54;68.51;102019.03;5077229;28;20443;-48
2022/08/28 04:26:13;;;;;;;7.95;4.07;;;;;;;16.55;68.84;102015.56;5073620;28;20384;-51
2022/08/28 04:28:39;;;;;;;10.52;4.18;;;;;;;16.54;68.69;102024.22;5070799;28;20016;-51
2022/08/28 04:31:06;;;;;;;9.95;3.58;;;;;;;16.53;69.08;102027.66;5073447;28;20039;-51
2022/08/28 04:33:31;;;;;;;8.65;3.45;;;;;;;16.46;69.29;102031.84;5071817;28;20043;-51
2022/08/28 04:36:01;;;;;;;12.05;3.90;;;;;;;16.49;69.13;102031.91;5074688;28;20528;-52
2022/08/28 04:38:27;;;;;;;10.80;3.80;;;;;;;16.41;69.27;102028.25;5066589;28;20056;-51
2022/08/28 04:40:52;;;;;;;12.23;4.05;;;;;;;16.45;69.41;102031.81;5073603;28;20059;-51
2022/08/28 04:43:17;;;;;;;10.55;3.80;;;;;;;16.43;69.41;102038.66;5073390;28;20041;-47
2022/08/28 04:45:44;;;;;;;11.70;3.70;;;;;;;16.45;69.14;102039.59;5074812;28;20036;-49
2022/08/28 04:48:14;;;;;;;8.32;3.67;;;;;;;16.40;69.27;102042.09;5072477;28;20035;-52
2022/08/28 04:50:44;;;;;;;11.27;3.90;;;;;;;16.39;69.24;102044.66;5073543;28;20558;-51
2022/08/28 04:53:11;;;;;;;9.93;4.00;;;;;;;16.33;69.62;102040.19;5069019;28;20028;-52
2022/08/28 04:55:41;;;;;;;13.40;4.30;;;;;;;16.34;69.57;102052.31;5068896;28;20056;-51
2022/08/28 04:58:07;;;;;;;10.98;4.22;;;;;;;16.31;69.51;102042.72;5075236;28;20024;-51
2022/08/28 05:00:33;;;;;;;12.38;4.35;;;;;;;16.32;69.61;102047.13;5076815;28;20028;-47
2022/08/28 05:02:58;;;;;;;13.93;4.28;;;;;;;16.29;69.54;102047.03;5072418;28;20384;-52
2022/08/28 05:05:23;;;;;;;13.00;4.30;;;;;;;16.28;69.39;102044.41;5076353;28;20031;-50
2022/08/28 05:07:49;;;;;;;10.57;3.80;;;;;;;16.28;69.74;102050.47;5075012;28;20131;-52
2022/08/28 05:10:14;;;;;;;9.25;3.80;;;;;;;16.24;70.08;102050.34;5072816;28;20031;-50
2022/08/28 05:12:40;;;;;;;9.70;4.25;;;;;;;16.24;69.91;102039.97;5076333;28;20106;-48
2022/08/28 05:15:06;;;;;;;12.05;4.05;;;;;;;16.26;70.24;102054.75;5068741;28;20118;-51
2022/08/28 05:17:32;;;;;;;14.27;4.10;;;;;;;16.20;70.21;102061.47;5073065;28;20036;-51
2022/08/28 05:19:57;;;;;;;13.18;3.88;;;;;;;16.15;70.28;102057.94;5070163;28;20031;-51
2022/08/28 05:22:22;;;;;;;10.18;4.03;;;;;;;16.15;70.75;102066.59;5072744;28;20486;-47
2022/08/28 05:24:48;;;;;;;8.80;3.97;;;;;;;16.21;70.15;102071.06;5072586;28;20032;-50
2022/08/28 05:27:13;;;;;;;8.48;4.00;;;;;;;16.16;70.24;102063.16;5068928;28;20469;-52
2022/08/28 05:29:38;;;;;;;9.63;4.03;;;;;;;16.15;70.22;102063.13;5068650;28;20423;-46
2022/08/28 05:32:04;;;;;;;9.95;3.70;;;;;;;16.15;70.41;102073.50;5071939;28;20032;-52
2022/08/28 05:34:30;;;;;;;8.88;3.78;;;;;;;16.13;70.78;102067.38;5072457;28;20085;-51
2022/08/28 05:36:55;;;;;;;9.57;3.83;;;;;;;16.09;70.91;102075.09;5069964;28;20029;-49
2022/08/28 05:39:21;;;;;;;16.45;4.38;;;;;;;16.10;70.17;102075.97;5072378;28;20077;-51
2022/08/28 05:41:46;;;;;;;9.95;5.00;;;;;;;16.07;70.61;102071.56;5067723;28;20028;-50
2022/08/28 05:44:14;;;;;;;10.00;4.57;;;;;;;16.06;71.04;102084.50;5071189;28;20036;-51
2022/08/28 05:46:43;;;;;;;11.23;3.78;;;;;;;16.06;71.22;102080.19;5075434;28;20082;-50
2022/08/28 05:49:09;;;;;;;10.00;4.20;;;;;;;16.08;71.17;102078.53;5071958;28;20036;-52
2022/08/28 05:51:35;;;;;;;9.88;4.20;;;;;;;16.11;70.99;102080.31;5070245;28;20028;-50
2022/08/28 05:54:02;;;;;;;9.65;4.10;;;;;;;16.09;71.22;102076.81;5068882;28;20043;-50
2022/08/28 05:56:31;;;;;;;10.65;4.57;;;;;;;16.10;71.24;102078.56;5075282;28;20056;-48
2022/08/28 05:58:59;;;;;;;13.48;4.20;;;;;;;16.12;71.47;102076.00;5072592;28;20047;-49
2022/08/28 06:01:28;;;;;;;11.10;4.22;;;;;;;16.17;71.49;102079.59;5068809;28;20037;-51
2022/08/28 06:03:53;;;;;;;12.80;4.13;;;;;;;16.25;71.22;102083.25;5068363;28;20024;-51
2022/08/28 06:06:20;;;;;;;11.30;4.10;;;;;;;16.30;71.30;102082.50;5074206;28;20503;-50
2022/08/28 06:08:45;;;;;;;12.13;4.68;;;;;;;16.38;71.60;102089.59;5067540;28;21406;-51
2022/08/28 06:11:10;;;;;;;9.95;4.15;;;;;;;16.37;71.25;102088.72;5072997;28;20165;-51
2022/08/28 06:13:36;;;;;;;13.70;4.00;;;;;;;16.47;71.21;102092.44;5078798;28;20044;-51
2022/08/28 06:16:02;;;;;;;10.23;3.70;;;;;;;16.51;71.42;102087.34;5069453;28;20048;-50
2022/08/28 06:18:27;;;;;;;11.55;4.10;;;;;;;16.58;71.00;102094.44;5073662;28;20606;-51
2022/08/28 06:20:53;;;;;;;11.43;3.83;;;;;;;16.61;70.80;102099.69;5072858;28;20036;-49
2022/08/28 06:23:21;;;;;;;12.63;3.83;;;;;;;16.68;70.87;102098.09;5073287;28;20786;-50
2022/08/28 06:25:48;;;;;;;9.10;3.90;;;;;;;16.70;71.04;102096.47;5074963;28;20741;-52
2022/08/28 06:28:17;;;;;;;13.70;4.47;;;;;;;16.81;70.55;102100.19;5069920;28;20020;-50
2022/08/28 06:30:43;;;;;;;12.35;3.97;;;;;;;16.81;70.81;102095.00;5067312;28;20120;-46
2022/08/28 06:33:11;;;;;;;11.63;4.10;;;;;;;16.88;70.12;102096.88;5074478;28;20032;-51
2022/08/28 06:35:44;;;;;;;16.30;4.60;;;;;;;17.02;69.99;102104.97;5070848;28;20040;-52
2022/08/28 06:38:11;;;;;;;8.88;3.65;;;;;;;17.07;69.36;102102.47;5071433;28;20046;-47
2022/08/28 06:40:38;;;;;;;14.68;4.40;;;;;;;17.12;69.50;102103.44;5071952;28;20044;-51
2022/08/28 06:43:04;;;;;;;11.32;3.97;;;;;;;17.18;69.73;102100.97;5066377;28;20434;-51
2022/08/28 06:45:30;;;;;;;13.48;3.80;;;;;;;17.24;69.54;102100.22;5075462;28;20796;-52
2022/08/28 06:47:55;;;;;;;9.18;3.78;;;;;;;17.33;69.58;102111.66;5072703;28;20028;-46
2022/08/28 06:50:21;;;;;;;10.93;3.95;;;;;;;17.51;68.78;102116.34;5069642;28;20036;-51
2022/08/28 06:52:46;;;;;;;10.70;3.83;;;;;;;17.63;68.42;102113.09;5069331;28;20044;-49
2022/08/28 06:55:12;;;;;;;13.63;4.10;;;;;;;17.70;68.14;102107.16;5070680;28;20063;-54
2022/08/28 06:57:37;;;;;;;9.98;3.50;;;;;;;17.81;67.86;102110.00;5067081;28;20041;-45
2022/08/28 07:00:04;;;;;;;11.20;3.53;;;;;;;17.89;67.71;102114.50;5072900;28;20071;-47
2022/08/28 07:02:29;;;;;;;10.73;3.08;;;;;;;18.03;67.10;102109.53;5076107;28;20755;-50
2022/08/28 07:04:55;;;;;;;14.57;3.90;;;;;;;18.11;66.97;102107.06;5075948;28;20032;-48
2022/08/28 07:07:20;;;;;;;11.23;3.38;;;;;;;18.24;66.33;102111.63;5072045;28;20510;-44
2022/08/28 07:09:47;;;;;;;15.23;3.80;;;;;;;18.32;66.24;102112.63;5075574;28;20040;-50
2022/08/28 07:12:15;;;;;;;13.10;3.63;;;;;;;18.48;65.98;102113.75;5074712;28;20027;-50
2022/08/28 07:14:42;;;;;;;11.25;3.47;;;;;;;18.60;64.97;102113.91;5071403;28;20504;-51
2022/08/28 07:17:07;;;;;;;10.77;3.10;;;;;;;18.68;64.64;102106.25;5075200;28;20118;-50
2022/08/28 07:19:33;;;;;;;9.20;2.85;;;;;;;18.72;64.19;102111.53;5085000;28;20461;-54
2022/08/28 07:21:58;;;;;;;9.90;2.90;;;;;;;18.86;63.88;102116.06;5075676;28;20440;-54
2022/08/28 07:24:24;;;;;;;7.82;2.90;;;;;;;19.02;64.11;102120.63;5074346;28;20032;-51
2022/08/28 07:26:49;;;;;;;8.65;3.35;;;;;;;19.11;63.38;102119.84;5075251;28;20376;-51
2022/08/28 07:29:16;;;;;;;10.02;2.20;;;;;;;19.13;62.21;102123.38;5067610;28;20036;-52
2022/08/28 07:31:45;;;;;;;8.82;2.40;;;;;;;19.23;61.75;102120.00;5069657;28;20550;-49
2022/08/28 07:34:12;;;;;;;11.00;2.53;;;;;;;19.29;60.97;102125.31;5068591;28;20464;-51
2022/08/28 07:36:39;;;;;;;7.53;2.17;;;;;;;19.38;60.72;102119.34;5072815;28;20387;-49
2022/08/28 07:39:05;;;;;;;8.80;1.90;;;;;;;19.37;60.41;102126.28;5070458;28;20032;-51
2022/08/28 07:41:35;;;;;;;9.02;2.42;;;;;;;19.49;60.41;102130.78;5068018;28;20045;-46
2022/08/28 07:46:44;;;;;;;10.23;2.75;;;;;;;19.65;60.65;102130.09;5070761;28;20078;-49
2022/08/28 07:49:11;;;;;;;10.80;3.25;;;;;;;19.73;59.71;102130.22;5071679;28;20024;-51
2022/08/28 07:51:36;;;;;;;9.55;2.30;;;;;;;19.77;59.31;102138.06;5070486;28;20088;-52
2022/08/28 07:54:03;;;;;;;8.80;1.95;;;;;;;19.87;58.82;102132.94;5066434;28;20030;-46
2022/08/28 07:56:28;;;;;;;8.73;2.13;;;;;;;19.85;58.73;102139.91;5070248;28;20800;-51
2022/08/28 07:58:58;;;;;;;8.45;2.03;;;;;;;19.83;58.54;102145.06;5071514;28;20028;-48
2022/08/28 08:01:26;;;;;;;10.07;2.00;;;;;;;19.88;58.27;102140.78;5069892;28;20028;-51
2022/08/28 08:03:51;;;;;;;8.43;2.03;;;;;;;19.88;57.81;102155.56;5071979;28;20024;-52
2022/08/28 08:06:17;;;;;;;7.82;1.73;;;;;;;19.94;58.17;102155.63;5068993;28;20030;-47
2022/08/28 08:08:44;;;;;;;7.70;2.00;;;;;;;19.85;57.17;102153.81;5075626;28;20028;-52
2022/08/28 08:11:14;;;;;;;8.77;2.15;;;;;;;19.79;57.38;102157.25;5075997;28;21290;-50
2022/08/28 08:13:39;;;;;;;8.63;1.95;;;;;;;19.85;57.52;102160.78;5075024;28;20024;-50
2022/08/28 08:16:09;;;;;;;9.82;2.10;;;;;;;19.87;56.77;102149.47;5075192;28;20086;-51
2022/08/28 08:18:35;;;;;;;6.55;1.85;;;;;;;19.92;56.93;102155.63;5072120;28;20400;-49
2022/08/28 08:21:04;;;;;;;9.68;2.10;;;;;;;20.04;57.82;102157.50;5073672;28;20032;-46
2022/08/28 08:23:29;;;;;;;12.10;2.35;;;;;;;20.04;56.97;102153.13;5075593;28;20214;-47
2022/08/28 08:26:00;;;;;;;10.07;2.13;;;;;;;20.15;56.80;102154.97;5070999;28;20114;-51
2022/08/28 08:28:27;;;;;;;4.68;1.80;;;;;;;20.09;56.33;102155.78;5071032;28;20028;-49
2022/08/28 08:31:14;;;;;;;6.00;1.80;;;;;;;20.19;57.06;102149.78;5069282;28;20028;-51
2022/08/28 08:33:42;;;;;;;7.05;1.77;;;;;;;20.22;56.56;102159.41;5073163;28;20036;-52
2022/08/28 08:36:10;;;;;;;8.32;1.83;;;;;;;20.18;55.63;102155.88;5072499;28;20349;-50
2022/08/28 08:38:36;;;;;;;9.63;1.90;;;;;;;20.11;55.37;102148.84;5068450;28;20115;-51
2022/08/28 08:41:09;;;;;;;8.48;1.70;;;;;;;20.08;54.79;102162.75;5073747;28;20111;-51
2022/08/28 08:43:55;;;;;;;7.15;1.60;;;;;;;20.05;55.00;102156.63;5068303;28;20036;-50
2022/08/28 08:46:30;;;;;;;6.97;1.55;;;;;;;20.01;54.78;102162.66;5064751;28;20559;-51
2022/08/28 08:49:03;;;;;;;7.65;1.67;;;;;;;20.08;55.05;102159.25;5068321;28;20021;-50
2022/08/28 08:51:40;;;;;;;6.85;1.83;;;;;;;20.21;55.41;102161.13;5068261;28;20085;-51
2022/08/28 08:54:12;;;;;;;8.77;1.67;;;;;;;20.27;54.83;102161.19;5064866;28;20027;-48
2022/08/28 08:56:40;;;;;;;5.88;1.65;;;;;;;20.30;53.76;102161.19;5066758;28;20044;-48
2022/08/28 08:59:10;;;;;;;5.95;1.73;;;;;;;20.31;53.47;102157.72;5067572;28;20039;-47
2022/08/28 09:01:54;;;;;;;7.18;1.48;;;;;;;20.27;53.09;102155.09;5066844;28;20081;-49
2022/08/28 09:04:45;;;;;;;5.57;1.50;;;;;;;20.29;53.89;102154.22;5065310;28;20029;-48
2022/08/28 09:07:13;;;;;;;4.13;1.50;;;;;;;20.34;53.32;102147.31;5064862;28;20070;-47
2022/08/28 09:10:07;;;;;;;5.03;1.60;;;;;;;20.40;53.32;102148.22;5064130;28;20126;-49
2022/08/28 09:13:01;;;;;;;7.75;1.80;;;;;;;20.49;53.02;102143.97;5063045;28;20769;-49
2022/08/28 09:15:35;;;;;;;8.30;1.60;;;;;;;20.53;52.12;102147.47;5070965;28;20399;-46
2022/08/28 09:18:34;;;;;;;7.43;1.75;;;;;;;20.70;52.34;102145.88;5069463;28;20031;-50
2022/08/28 09:20:59;;;;;;;6.93;1.42;;;;;;;20.80;52.07;102147.66;5031560;28;20071;-46
2022/08/28 09:23:27;;;;;;;6.13;1.50;;;;;;;20.92;51.46;102156.44;5059802;28;20655;-47
2022/08/28 09:26:01;;;;;;;4.80;1.67;;;;;;;20.97;51.66;102154.72;5063304;28;20042;-49
2022/08/28 09:28:43;;;;;;;7.82;1.60;;;;;;;21.06;52.25;102144.34;5065241;28;21723;-48
2022/08/28 09:31:32;;;;;;;7.93;1.58;;;;;;;21.22;51.09;102155.72;5060716;28;20485;-50
2022/08/28 09:34:33;;;;;;;6.82;1.40;;;;;;;21.31;51.22;102142.72;5065856;28;20032;-51
2022/08/28 09:37:00;;;;;;;5.72;1.60;;;;;;;21.24;49.78;102154.88;5060249;28;20119;-52
2022/08/28 09:39:30;;;;;;;3.78;1.45;;;;;;;21.25;50.08;102158.38;5061660;28;20040;-51
2022/08/28 09:45:20;;;;;;;5.47;1.63;;;;;;;21.44;49.98;102152.38;5067605;28;20035;-50
2022/08/28 09:47:50;;;;;;;5.50;1.52;;;;;;;21.47;49.32;102147.13;5051812;28;20032;-50
2022/08/28 09:50:17;;;;;;;7.03;1.90;;;;;;;21.59;49.53;102149.78;5063675;28;20028;-48
2022/08/28 09:52:43;;;;;;;6.38;1.63;;;;;;;21.64;49.47;102148.06;5065827;28;20393;-51
2022/08/28 09:55:14;;;;;;;4.45;1.50;;;;;;;21.70;48.89;102152.44;5068618;28;20032;-52
2022/08/28 09:57:45;;;;;;;8.43;1.70;;;;;;;21.72;48.92;102153.34;5070786;28;20048;-51
2022/08/28 10:00:12;;;;;;;10.02;1.60;;;;;;;21.79;48.64;102144.63;5069583;28;20079;-50
2022/08/28 10:02:49;;;;;;;8.60;1.85;;;;;;;21.89;48.74;102149.00;5068596;28;20480;-51
2022/08/28 10:05:33;;;;;;;4.55;1.60;;;;;;;21.93;47.96;102144.63;5067408;28;20034;-50
2022/08/28 10:08:31;;;;;;;6.70;1.90;;;;;;;21.95;48.80;102151.63;5070001;28;20044;-48
2022/08/28 10:11:06;;;;;;;4.15;1.55;;;;;;;21.90;48.76;102150.75;5067753;28;20049;-52
2022/08/28 10:13:45;;;;;;;7.70;1.98;;;;;;;21.88;48.71;102155.09;5069911;28;20028;-49
2022/08/28 10:16:45;;;;;;;5.90;1.55;;;;;;;21.89;49.32;102146.38;5068676;28;20036;-51
2022/08/28 10:19:25;;;;;;;6.50;1.80;;;;;;;21.91;49.10;102149.88;5045452;28;20503;-52
2022/08/28 10:22:09;;;;;;;6.50;1.67;;;;;;;21.89;49.28;102149.00;5069614;28;20127;-52
2022/08/28 10:24:53;;;;;;;6.18;1.42;;;;;;;21.89;48.92;102150.72;5067884;28;20032;-52
2022/08/28 10:27:57;;;;;;;5.22;1.50;;;;;;;21.93;49.01;102150.75;5067491;28;20556;-51
2022/08/28 10:30:24;;;;;;;3.70;1.40;;;;;;;21.90;49.10;102145.53;5065792;28;20143;-50
2022/08/28 10:33:26;;;;;;;8.25;1.75;;;;;;;21.95;48.62;102153.38;5071034;28;20029;-51
2022/08/28 10:36:00;;;;;;;3.95;1.30;;;;;;;21.89;49.05;102148.13;5073739;28;20111;-52
2022/08/28 10:38:28;;;;;;;4.55;1.60;;;;;;;22.08;49.17;102139.41;5069105;28;20060;-51
2022/08/28 10:41:07;;;;;;;8.30;1.40;;;;;;;22.29;48.19;102141.22;5069931;28;20052;-51
2022/08/28 10:43:51;;;;;;;7.38;1.40;;;;;;;22.56;47.58;102142.91;5068028;28;20029;-48
2022/08/28 10:46:35;;;;;;;4.20;1.50;;;;;;;22.79;47.21;102137.63;5070350;28;20085;-48
2022/08/28 10:49:07;;;;;;;5.40;1.45;;;;;;;23.00;44.85;102139.38;5070405;28;20024;-51
2022/08/28 10:51:41;;;;;;;5.18;1.40;;;;;;;23.13;44.50;102138.47;5071981;28;20028;-51
2022/08/28 10:54:22;;;;;;;4.20;1.50;;;;;;;23.29;44.71;102139.25;5076075;28;20509;-51
2022/08/28 10:56:57;;;;;;;5.35;1.33;;;;;;;23.36;44.74;102134.84;5071824;28;20488;-52
2022/08/28 10:59:26;;;;;;;4.45;1.25;;;;;;;23.28;44.49;102138.38;5072794;28;20036;-47
2022/08/28 11:01:51;;;;;;;6.20;1.52;;;;;;;23.11;44.13;102144.56;5075544;28;20040;-49
2022/08/28 11:04:20;;;;;;;6.65;1.58;;;;;;;22.87;44.10;102146.41;5071050;28;20037;-51
2022/08/28 11:06:48;;;;;;;;;;;;;;;23.10;44.94;102150.69;5071348;28;20024;-49
2022/08/28 11:09:26;;;;;;;5.85;1.30;;;;;;;23.29;43.29;102145.38;5074429;28;19912;-51
2022/08/28 11:12:00;;;;;;;4.35;1.30;;;;;;;23.62;43.05;102146.13;5077923;28;20035;-51
2022/08/28 11:14:35;;;;;;;3.42;1.48;;;;;;;23.98;43.02;102129.25;5068046;28;20078;-51
2022/08/28 11:17:04;;;;;;;3.92;1.27;;;;;;;24.24;41.58;102142.19;5075470;28;20476;-47
2022/08/28 11:20:06;;;;;;;6.47;1.40;;;;;;;24.14;41.44;102145.75;5081180;28;20104;-51
2022/08/28 11:22:38;;;;;;;4.90;1.40;;;;;;;23.95;41.53;102144.16;5017039;28;20045;-50
2022/08/28 11:25:23;;;;;;;3.88;1.40;;;;;;;23.85;41.88;102140.75;5062913;28;20040;-51
2022/08/28 11:28:18;;;;;;;3.70;1.42;;;;;;;23.75;42.13;102141.69;5076256;28;20024;-48
2022/08/28 11:30:47;;;;;;;4.35;1.38;;;;;;;23.61;41.42;102146.13;5074419;28;20025;-52
2022/08/28 11:33:34;;;;;;;3.92;1.10;;;;;;;23.80;41.86;102150.41;5070379;28;20107;-48
2022/08/28 11:36:00;;;;;;;4.45;1.48;;;;;;;23.61;41.17;102148.75;5075486;28;20534;-50
2022/08/28 11:38:41;;;;;;;6.00;1.58;;;;;;;23.64;42.39;102143.50;5076875;28;20036;-47
2022/08/28 11:41:19;;;;;;;4.40;1.30;;;;;;;23.79;41.86;102140.78;5073769;28;20032;-47